ENAL/AES METAR and TAF weather

Enter ICAO airport designator
Station Type Date Time Source
ENAL METAR 2022/01/23 12:50 UTC NOAA

ENAL 231250Z 23021KT 9999 FEW027 SCT033 BKN042 09/06 Q1017


Station Type Date Time Source
ENAL Decoded METAR 2022/01/23 12:50 UTC NOAA

Alesund / Vigra, Norway (ENAL) 62-34N 006-07E 22M
Jan 23, 2022 - 07:50 AM EST / 2022.01.23 1250 UTC
Wind: from the SW (230 degrees) at 24 MPH (21 KT):0
Visibility: greater than 7 mile(s):0
Sky conditions: mostly cloudy
Temperature: 48 F (9 C)
Dew Point: 42 F (6 C)
Relative Humidity: 81%
Pressure (altimeter): 30.03 in. Hg (1017 hPa)
ob: ENAL 231250Z 23021KT 9999 FEW027 SCT033 BKN042 09/06 Q1017
cycle: 13

Station Type Date Time Source
ENAL TAF UTC NOAA

Error!

Example: see airport list